sensor_id;sensor_type;location;lat;lon;timestamp;P1;durP1;ratioP1;P2;durP2;ratioP2
54561;SDS011;40456;53.358;-1.486;2022-11-25T00:01:28;5.03;;;1.25;;
54561;SDS011;40456;53.358;-1.486;2022-11-25T00:03:55;4.57;;;1.20;;
54561;SDS011;40456;53.358;-1.486;2022-11-25T00:06:24;4.70;;;1.40;;
54561;SDS011;40456;53.358;-1.486;2022-11-25T00:08:54;2.42;;;1.27;;
54561;SDS011;40456;53.358;-1.486;2022-11-25T00:11:22;3.08;;;1.00;;
54561;SDS011;40456;53.358;-1.486;2022-11-25T00:13:47;5.45;;;0.80;;
54561;SDS011;40456;53.358;-1.486;2022-11-25T00:16:14;6.57;;;1.20;;
54561;SDS011;40456;53.358;-1.486;2022-11-25T00:18:50;3.90;;;1.15;;
54561;SDS011;40456;53.358;-1.486;2022-11-25T00:21:18;6.32;;;1.15;;
54561;SDS011;40456;53.358;-1.486;2022-11-25T00:23:49;2.92;;;0.90;;
54561;SDS011;40456;53.358;-1.486;2022-11-25T00:28:44;4.30;;;0.95;;
54561;SDS011;40456;53.358;-1.486;2022-11-25T00:31:11;4.50;;;0.80;;
54561;SDS011;40456;53.358;-1.486;2022-11-25T00:33:39;2.28;;;0.68;;
54561;SDS011;40456;53.358;-1.486;2022-11-25T00:36:05;3.60;;;1.05;;
54561;SDS011;40456;53.358;-1.486;2022-11-25T00:38:32;3.05;;;0.70;;
54561;SDS011;40456;53.358;-1.486;2022-11-25T00:40:57;1.20;;;0.60;;
54561;SDS011;40456;53.358;-1.486;2022-11-25T00:43:42;4.07;;;0.98;;
54561;SDS011;40456;53.358;-1.486;2022-11-25T00:46:25;3.47;;;0.95;;
54561;SDS011;40456;53.358;-1.486;2022-11-25T00:48:51;1.02;;;0.52;;
54561;SDS011;40456;53.358;-1.486;2022-11-25T00:51:17;1.80;;;0.70;;
54561;SDS011;40456;53.358;-1.486;2022-11-25T00:53:43;1.67;;;0.70;;
54561;SDS011;40456;53.358;-1.486;2022-11-25T00:56:12;2.33;;;0.70;;
54561;SDS011;40456;53.358;-1.486;2022-11-25T00:58:39;2.25;;;0.57;;
54561;SDS011;40456;53.358;-1.486;2022-11-25T01:01:05;0.85;;;0.40;;
54561;SDS011;40456;53.358;-1.486;2022-11-25T01:03:31;2.15;;;0.55;;
54561;SDS011;40456;53.358;-1.486;2022-11-25T01:06:00;0.93;;;0.70;;
54561;SDS011;40456;53.358;-1.486;2022-11-25T01:08:28;1.85;;;0.70;;
54561;SDS011;40456;53.358;-1.486;2022-11-25T01:11:00;1.02;;;0.45;;
54561;SDS011;40456;53.358;-1.486;2022-11-25T01:13:30;3.25;;;0.60;;
54561;SDS011;40456;53.358;-1.486;2022-11-25T01:15:55;1.33;;;0.40;;
54561;SDS011;40456;53.358;-1.486;2022-11-25T01:18:21;2.60;;;0.60;;
54561;SDS011;40456;53.358;-1.486;2022-11-25T01:20:46;2.05;;;0.52;;
54561;SDS011;40456;53.358;-1.486;2022-11-25T01:23:11;1.48;;;0.30;;
54561;SDS011;40456;53.358;-1.486;2022-11-25T01:25:37;1.15;;;0.50;;
54561;SDS011;40456;53.358;-1.486;2022-11-25T01:28:03;4.30;;;1.02;;
54561;SDS011;40456;53.358;-1.486;2022-11-25T01:30:29;1.00;;;0.40;;
54561;SDS011;40456;53.358;-1.486;2022-11-25T01:32:54;2.33;;;0.70;;
54561;SDS011;40456;53.358;-1.486;2022-11-25T01:35:22;1.85;;;0.30;;
54561;SDS011;40456;53.358;-1.486;2022-11-25T01:37:47;1.35;;;0.30;;
54561;SDS011;40456;53.358;-1.486;2022-11-25T01:40:13;1.40;;;0.43;;
54561;SDS011;40456;53.358;-1.486;2022-11-25T01:42:42;2.58;;;0.50;;
54561;SDS011;40456;53.358;-1.486;2022-11-25T01:47:49;1.02;;;0.30;;
54561;SDS011;40456;53.358;-1.486;2022-11-25T01:50:16;2.17;;;0.40;;
54561;SDS011;40456;53.358;-1.486;2022-11-25T01:52:43;1.17;;;0.55;;
54561;SDS011;40456;53.358;-1.486;2022-11-25T01:55:17;2.80;;;0.50;;
54561;SDS011;40456;53.358;-1.486;2022-11-25T01:57:53;1.38;;;0.40;;
54561;SDS011;40456;53.358;-1.486;2022-11-25T02:00:21;1.33;;;0.40;;
54561;SDS011;40456;53.358;-1.486;2022-11-25T02:02:47;1.58;;;0.20;;
54561;SDS011;40456;53.358;-1.486;2022-11-25T02:05:18;1.08;;;0.40;;
54561;SDS011;40456;53.358;-1.486;2022-11-25T02:07:46;1.20;;;0.30;;
54561;SDS011;40456;53.358;-1.486;2022-11-25T02:10:14;0.60;;;0.30;;
54561;SDS011;40456;53.358;-1.486;2022-11-25T02:12:42;1.48;;;0.40;;
54561;SDS011;40456;53.358;-1.486;2022-11-25T02:15:09;4.40;;;0.47;;
54561;SDS011;40456;53.358;-1.486;2022-11-25T02:17:34;1.15;;;0.50;;
54561;SDS011;40456;53.358;-1.486;2022-11-25T02:20:08;1.08;;;0.28;;
54561;SDS011;40456;53.358;-1.486;2022-11-25T02:25:31;1.48;;;0.43;;
54561;SDS011;40456;53.358;-1.486;2022-11-25T02:28:00;0.98;;;0.30;;
54561;SDS011;40456;53.358;-1.486;2022-11-25T02:30:27;1.77;;;0.45;;
54561;SDS011;40456;53.358;-1.486;2022-11-25T02:32:53;1.30;;;0.50;;
54561;SDS011;40456;53.358;-1.486;2022-11-25T02:37:55;0.55;;;0.30;;
54561;SDS011;40456;53.358;-1.486;2022-11-25T02:40:24;0.70;;;0.40;;
54561;SDS011;40456;53.358;-1.486;2022-11-25T02:42:51;0.25;;;0.17;;
54561;SDS011;40456;53.358;-1.486;2022-11-25T02:45:16;5.03;;;1.23;;
54561;SDS011;40456;53.358;-1.486;2022-11-25T02:47:45;1.08;;;0.38;;
54561;SDS011;40456;53.358;-1.486;2022-11-25T02:50:10;0.28;;;0.20;;
54561;SDS011;40456;53.358;-1.486;2022-11-25T02:52:37;1.10;;;0.57;;
54561;SDS011;40456;53.358;-1.486;2022-11-25T02:55:03;1.23;;;0.60;;
54561;SDS011;40456;53.358;-1.486;2022-11-25T02:57:29;2.03;;;0.60;;
54561;SDS011;40456;53.358;-1.486;2022-11-25T02:59:54;1.40;;;0.52;;
54561;SDS011;40456;53.358;-1.486;2022-11-25T03:02:19;1.02;;;0.25;;
54561;SDS011;40456;53.358;-1.486;2022-11-25T03:04:45;1.08;;;0.40;;
54561;SDS011;40456;53.358;-1.486;2022-11-25T03:07:10;0.85;;;0.25;;
54561;SDS011;40456;53.358;-1.486;2022-11-25T03:09:36;0.90;;;0.30;;
54561;SDS011;40456;53.358;-1.486;2022-11-25T03:12:01;2.45;;;0.35;;
54561;SDS011;40456;53.358;-1.486;2022-11-25T03:17:10;2.47;;;0.30;;
54561;SDS011;40456;53.358;-1.486;2022-11-25T03:19:35;1.55;;;0.30;;
54561;SDS011;40456;53.358;-1.486;2022-11-25T03:22:01;1.45;;;0.40;;
54561;SDS011;40456;53.358;-1.486;2022-11-25T03:24:26;1.17;;;0.40;;
54561;SDS011;40456;53.358;-1.486;2022-11-25T03:26:52;2.22;;;0.50;;
54561;SDS011;40456;53.358;-1.486;2022-11-25T03:29:17;0.70;;;0.25;;
54561;SDS011;40456;53.358;-1.486;2022-11-25T03:31:43;0.80;;;0.20;;
54561;SDS011;40456;53.358;-1.486;2022-11-25T03:34:08;0.95;;;0.30;;
54561;SDS011;40456;53.358;-1.486;2022-11-25T03:36:33;0.73;;;0.30;;
54561;SDS011;40456;53.358;-1.486;2022-11-25T03:38:59;2.40;;;0.35;;
54561;SDS011;40456;53.358;-1.486;2022-11-25T03:41:25;1.90;;;0.40;;
54561;SDS011;40456;53.358;-1.486;2022-11-25T03:43:50;1.65;;;0.30;;
54561;SDS011;40456;53.358;-1.486;2022-11-25T03:46:16;1.02;;;0.20;;
54561;SDS011;40456;53.358;-1.486;2022-11-25T03:48:42;2.25;;;0.47;;
54561;SDS011;40456;53.358;-1.486;2022-11-25T03:51:07;1.08;;;0.45;;
54561;SDS011;40456;53.358;-1.486;2022-11-25T03:53:33;0.80;;;0.38;;
54561;SDS011;40456;53.358;-1.486;2022-11-25T03:55:58;1.38;;;0.63;;
54561;SDS011;40456;53.358;-1.486;2022-11-25T03:58:23;1.17;;;0.50;;
54561;SDS011;40456;53.358;-1.486;2022-11-25T04:00:49;2.63;;;0.30;;
54561;SDS011;40456;53.358;-1.486;2022-11-25T04:03:14;1.20;;;0.50;;
54561;SDS011;40456;53.358;-1.486;2022-11-25T04:05:40;0.68;;;0.35;;
54561;SDS011;40456;53.358;-1.486;2022-11-25T04:08:05;2.92;;;0.40;;
54561;SDS011;40456;53.358;-1.486;2022-11-25T04:10:31;1.63;;;0.60;;
54561;SDS011;40456;53.358;-1.486;2022-11-25T04:12:56;1.77;;;0.50;;
54561;SDS011;40456;53.358;-1.486;2022-11-25T04:15:21;0.93;;;0.50;;
54561;SDS011;40456;53.358;-1.486;2022-11-25T04:17:47;2.58;;;0.35;;
54561;SDS011;40456;53.358;-1.486;2022-11-25T04:20:13;1.70;;;0.30;;
54561;SDS011;40456;53.358;-1.486;2022-11-25T04:22:38;1.20;;;0.32;;
54561;SDS011;40456;53.358;-1.486;2022-11-25T04:25:04;1.35;;;0.35;;
54561;SDS011;40456;53.358;-1.486;2022-11-25T04:27:30;1.65;;;0.43;;
54561;SDS011;40456;53.358;-1.486;2022-11-25T04:29:55;2.80;;;0.50;;
54561;SDS011;40456;53.358;-1.486;2022-11-25T04:32:20;0.90;;;0.30;;
54561;SDS011;40456;53.358;-1.486;2022-11-25T04:34:46;3.13;;;0.45;;
54561;SDS011;40456;53.358;-1.486;2022-11-25T04:37:11;2.47;;;0.50;;
54561;SDS011;40456;53.358;-1.486;2022-11-25T04:39:37;2.05;;;0.50;;
54561;SDS011;40456;53.358;-1.486;2022-11-25T04:42:02;2.13;;;0.40;;
54561;SDS011;40456;53.358;-1.486;2022-11-25T04:44:46;1.27;;;0.40;;
54561;SDS011;40456;53.358;-1.486;2022-11-25T04:47:11;1.42;;;0.40;;
54561;SDS011;40456;53.358;-1.486;2022-11-25T04:49:37;0.95;;;0.38;;
54561;SDS011;40456;53.358;-1.486;2022-11-25T04:52:03;1.60;;;0.70;;
54561;SDS011;40456;53.358;-1.486;2022-11-25T04:54:28;2.25;;;0.70;;
54561;SDS011;40456;53.358;-1.486;2022-11-25T04:56:53;0.82;;;0.55;;
54561;SDS011;40456;53.358;-1.486;2022-11-25T04:59:20;0.63;;;0.40;;
54561;SDS011;40456;53.358;-1.486;2022-11-25T05:02:26;0.95;;;0.52;;
54561;SDS011;40456;53.358;-1.486;2022-11-25T05:04:51;2.13;;;0.40;;
54561;SDS011;40456;53.358;-1.486;2022-11-25T05:07:18;1.35;;;0.45;;
54561;SDS011;40456;53.358;-1.486;2022-11-25T05:09:45;1.73;;;0.40;;
54561;SDS011;40456;53.358;-1.486;2022-11-25T05:12:12;3.65;;;0.60;;
54561;SDS011;40456;53.358;-1.486;2022-11-25T05:14:39;1.05;;;0.30;;
54561;SDS011;40456;53.358;-1.486;2022-11-25T05:17:06;1.08;;;0.20;;
54561;SDS011;40456;53.358;-1.486;2022-11-25T05:19:32;1.63;;;0.50;;
54561;SDS011;40456;53.358;-1.486;2022-11-25T05:22:00;3.70;;;0.38;;
54561;SDS011;40456;53.358;-1.486;2022-11-25T05:24:25;1.15;;;0.30;;
54561;SDS011;40456;53.358;-1.486;2022-11-25T05:26:51;0.98;;;0.30;;
54561;SDS011;40456;53.358;-1.486;2022-11-25T05:29:16;0.75;;;0.28;;
54561;SDS011;40456;53.358;-1.486;2022-11-25T05:31:42;0.55;;;0.32;;
54561;SDS011;40456;53.358;-1.486;2022-11-25T05:34:07;2.90;;;0.43;;
54561;SDS011;40456;53.358;-1.486;2022-11-25T05:36:32;0.63;;;0.40;;
54561;SDS011;40456;53.358;-1.486;2022-11-25T05:38:58;2.05;;;0.30;;
54561;SDS011;40456;53.358;-1.486;2022-11-25T05:41:24;2.22;;;0.40;;
54561;SDS011;40456;53.358;-1.486;2022-11-25T05:43:50;1.88;;;0.30;;
54561;SDS011;40456;53.358;-1.486;2022-11-25T05:46:15;1.08;;;0.32;;
54561;SDS011;40456;53.358;-1.486;2022-11-25T05:48:41;0.60;;;0.32;;
54561;SDS011;40456;53.358;-1.486;2022-11-25T05:51:06;1.40;;;0.30;;
54561;SDS011;40456;53.358;-1.486;2022-11-25T05:53:33;0.85;;;0.40;;
54561;SDS011;40456;53.358;-1.486;2022-11-25T05:56:00;0.75;;;0.50;;
54561;SDS011;40456;53.358;-1.486;2022-11-25T05:58:27;0.20;;;0.20;;
54561;SDS011;40456;53.358;-1.486;2022-11-25T06:00:53;1.73;;;0.40;;
54561;SDS011;40456;53.358;-1.486;2022-11-25T06:03:19;0.65;;;0.30;;
54561;SDS011;40456;53.358;-1.486;2022-11-25T06:05:44;0.77;;;0.30;;
54561;SDS011;40456;53.358;-1.486;2022-11-25T06:08:10;0.47;;;0.40;;
54561;SDS011;40456;53.358;-1.486;2022-11-25T06:10:38;2.05;;;0.40;;
54561;SDS011;40456;53.358;-1.486;2022-11-25T06:13:05;1.02;;;0.22;;
54561;SDS011;40456;53.358;-1.486;2022-11-25T06:15:31;0.47;;;0.20;;
54561;SDS011;40456;53.358;-1.486;2022-11-25T06:17:56;1.48;;;0.30;;
54561;SDS011;40456;53.358;-1.486;2022-11-25T06:20:21;3.08;;;0.57;;
54561;SDS011;40456;53.358;-1.486;2022-11-25T06:22:47;3.05;;;1.27;;
54561;SDS011;40456;53.358;-1.486;2022-11-25T06:25:12;2.03;;;0.40;;
54561;SDS011;40456;53.358;-1.486;2022-11-25T06:27:37;1.48;;;0.45;;
54561;SDS011;40456;53.358;-1.486;2022-11-25T06:30:03;2.25;;;0.38;;
54561;SDS011;40456;53.358;-1.486;2022-11-25T06:32:29;0.85;;;0.40;;
54561;SDS011;40456;53.358;-1.486;2022-11-25T06:34:54;2.13;;;0.70;;
54561;SDS011;40456;53.358;-1.486;2022-11-25T06:37:20;0.50;;;0.40;;
54561;SDS011;40456;53.358;-1.486;2022-11-25T06:39:45;2.35;;;0.40;;
54561;SDS011;40456;53.358;-1.486;2022-11-25T06:42:10;1.15;;;0.43;;
54561;SDS011;40456;53.358;-1.486;2022-11-25T06:44:36;2.17;;;0.50;;
54561;SDS011;40456;53.358;-1.486;2022-11-25T06:47:01;1.95;;;0.25;;
54561;SDS011;40456;53.358;-1.486;2022-11-25T06:49:27;0.50;;;0.20;;
54561;SDS011;40456;53.358;-1.486;2022-11-25T06:51:53;2.63;;;0.60;;
54561;SDS011;40456;53.358;-1.486;2022-11-25T06:54:18;0.98;;;0.38;;
54561;SDS011;40456;53.358;-1.486;2022-11-25T06:56:44;2.78;;;0.30;;
54561;SDS011;40456;53.358;-1.486;2022-11-25T06:59:09;0.60;;;0.40;;
54561;SDS011;40456;53.358;-1.486;2022-11-25T07:01:34;1.50;;;0.40;;
54561;SDS011;40456;53.358;-1.486;2022-11-25T07:04:01;0.98;;;0.40;;
54561;SDS011;40456;53.358;-1.486;2022-11-25T07:06:29;1.50;;;0.43;;
54561;SDS011;40456;53.358;-1.486;2022-11-25T07:08:55;1.38;;;0.45;;
54561;SDS011;40456;53.358;-1.486;2022-11-25T07:11:25;4.32;;;0.82;;
54561;SDS011;40456;53.358;-1.486;2022-11-25T07:13:55;1.55;;;0.40;;
54561;SDS011;40456;53.358;-1.486;2022-11-25T07:16:26;1.77;;;0.82;;
54561;SDS011;40456;53.358;-1.486;2022-11-25T07:18:51;2.13;;;0.52;;
54561;SDS011;40456;53.358;-1.486;2022-11-25T07:21:22;2.17;;;0.30;;
54561;SDS011;40456;53.358;-1.486;2022-11-25T07:23:49;0.68;;;0.45;;
54561;SDS011;40456;53.358;-1.486;2022-11-25T07:26:19;2.53;;;0.60;;
54561;SDS011;40456;53.358;-1.486;2022-11-25T07:28:48;3.65;;;0.80;;
54561;SDS011;40456;53.358;-1.486;2022-11-25T07:31:22;2.83;;;0.40;;
54561;SDS011;40456;53.358;-1.486;2022-11-25T07:33:52;2.55;;;0.32;;
54561;SDS011;40456;53.358;-1.486;2022-11-25T07:36:18;0.60;;;0.28;;
54561;SDS011;40456;53.358;-1.486;2022-11-25T07:38:44;2.17;;;0.80;;
54561;SDS011;40456;53.358;-1.486;2022-11-25T07:41:10;2.38;;;0.50;;
54561;SDS011;40456;53.358;-1.486;2022-11-25T07:43:39;2.53;;;0.30;;
54561;SDS011;40456;53.358;-1.486;2022-11-25T07:48:39;2.05;;;0.40;;
54561;SDS011;40456;53.358;-1.486;2022-11-25T07:51:05;1.80;;;0.50;;
54561;SDS011;40456;53.358;-1.486;2022-11-25T07:53:37;1.27;;;0.70;;
54561;SDS011;40456;53.358;-1.486;2022-11-25T07:56:02;2.83;;;0.50;;
54561;SDS011;40456;53.358;-1.486;2022-11-25T07:58:28;2.80;;;0.43;;
54561;SDS011;40456;53.358;-1.486;2022-11-25T08:00:53;2.45;;;0.50;;
54561;SDS011;40456;53.358;-1.486;2022-11-25T08:03:19;3.63;;;0.40;;
54561;SDS011;40456;53.358;-1.486;2022-11-25T08:05:44;1.92;;;0.70;;
54561;SDS011;40456;53.358;-1.486;2022-11-25T08:08:09;1.15;;;0.40;;
54561;SDS011;40456;53.358;-1.486;2022-11-25T08:10:38;1.55;;;0.68;;
54561;SDS011;40456;53.358;-1.486;2022-11-25T08:13:04;2.05;;;0.52;;
54561;SDS011;40456;53.358;-1.486;2022-11-25T08:15:30;1.38;;;0.65;;
54561;SDS011;40456;53.358;-1.486;2022-11-25T08:17:56;2.53;;;0.68;;
54561;SDS011;40456;53.358;-1.486;2022-11-25T08:20:22;3.33;;;0.52;;
54561;SDS011;40456;53.358;-1.486;2022-11-25T08:22:47;2.38;;;0.47;;
54561;SDS011;40456;53.358;-1.486;2022-11-25T08:25:12;1.35;;;0.40;;
54561;SDS011;40456;53.358;-1.486;2022-11-25T08:27:38;1.60;;;0.63;;
54561;SDS011;40456;53.358;-1.486;2022-11-25T08:30:05;3.38;;;0.90;;
54561;SDS011;40456;53.358;-1.486;2022-11-25T08:32:35;4.22;;;0.65;;
54561;SDS011;40456;53.358;-1.486;2022-11-25T08:35:01;2.17;;;0.52;;
54561;SDS011;40456;53.358;-1.486;2022-11-25T08:37:26;1.27;;;0.50;;
54561;SDS011;40456;53.358;-1.486;2022-11-25T08:39:54;2.60;;;0.63;;
54561;SDS011;40456;53.358;-1.486;2022-11-25T08:42:20;1.45;;;0.50;;
54561;SDS011;40456;53.358;-1.486;2022-11-25T08:44:50;2.63;;;0.65;;
54561;SDS011;40456;53.358;-1.486;2022-11-25T08:47:16;2.65;;;0.60;;
54561;SDS011;40456;53.358;-1.486;2022-11-25T08:49:42;6.20;;;0.85;;
54561;SDS011;40456;53.358;-1.486;2022-11-25T08:52:08;3.25;;;0.98;;
54561;SDS011;40456;53.358;-1.486;2022-11-25T08:54:34;1.60;;;0.63;;
54561;SDS011;40456;53.358;-1.486;2022-11-25T08:56:59;3.60;;;0.77;;
54561;SDS011;40456;53.358;-1.486;2022-11-25T08:59:25;2.88;;;0.52;;
54561;SDS011;40456;53.358;-1.486;2022-11-25T09:01:50;1.98;;;0.88;;
54561;SDS011;40456;53.358;-1.486;2022-11-25T09:04:15;4.22;;;0.90;;
54561;SDS011;40456;53.358;-1.486;2022-11-25T09:06:41;2.58;;;0.70;;
54561;SDS011;40456;53.358;-1.486;2022-11-25T09:09:06;2.78;;;1.08;;
54561;SDS011;40456;53.358;-1.486;2022-11-25T09:11:32;4.78;;;0.80;;
54561;SDS011;40456;53.358;-1.486;2022-11-25T09:13:57;4.00;;;0.63;;
54561;SDS011;40456;53.358;-1.486;2022-11-25T09:16:23;1.95;;;0.65;;
54561;SDS011;40456;53.358;-1.486;2022-11-25T09:18:48;4.88;;;0.80;;
54561;SDS011;40456;53.358;-1.486;2022-11-25T09:21:14;3.22;;;0.63;;
54561;SDS011;40456;53.358;-1.486;2022-11-25T09:23:40;4.30;;;0.95;;
54561;SDS011;40456;53.358;-1.486;2022-11-25T09:26:06;3.83;;;1.20;;
54561;SDS011;40456;53.358;-1.486;2022-11-25T09:28:32;1.95;;;0.80;;
54561;SDS011;40456;53.358;-1.486;2022-11-25T09:30:59;2.50;;;0.88;;
54561;SDS011;40456;53.358;-1.486;2022-11-25T09:33:30;3.40;;;0.98;;
54561;SDS011;40456;53.358;-1.486;2022-11-25T09:35:58;2.40;;;0.63;;
54561;SDS011;40456;53.358;-1.486;2022-11-25T09:38:24;1.00;;;0.50;;
54561;SDS011;40456;53.358;-1.486;2022-11-25T09:40:51;1.65;;;0.50;;
54561;SDS011;40456;53.358;-1.486;2022-11-25T09:43:30;5.97;;;0.98;;
54561;SDS011;40456;53.358;-1.486;2022-11-25T09:52:18;3.45;;;0.68;;
54561;SDS011;40456;53.358;-1.486;2022-11-25T09:57:38;1.08;;;0.35;;
54561;SDS011;40456;53.358;-1.486;2022-11-25T10:00:21;2.45;;;0.50;;
54561;SDS011;40456;53.358;-1.486;2022-11-25T10:06:04;2.17;;;0.68;;
54561;SDS011;40456;53.358;-1.486;2022-11-25T10:08:37;2.63;;;0.77;;
54561;SDS011;40456;53.358;-1.486;2022-11-25T10:13:58;4.75;;;1.10;;
54561;SDS011;40456;53.358;-1.486;2022-11-25T10:21:40;2.63;;;0.68;;
54561;SDS011;40456;53.358;-1.486;2022-11-25T10:24:07;3.97;;;0.57;;
54561;SDS011;40456;53.358;-1.486;2022-11-25T10:26:39;2.67;;;0.70;;
54561;SDS011;40456;53.358;-1.486;2022-11-25T10:31:38;2.92;;;0.60;;
54561;SDS011;40456;53.358;-1.486;2022-11-25T10:34:11;5.65;;;0.93;;
54561;SDS011;40456;53.358;-1.486;2022-11-25T10:36:52;2.75;;;1.00;;
54561;SDS011;40456;53.358;-1.486;2022-11-25T10:39:19;6.63;;;1.27;;
54561;SDS011;40456;53.358;-1.486;2022-11-25T10:41:54;3.35;;;0.68;;
54561;SDS011;40456;53.358;-1.486;2022-11-25T10:44:28;1.45;;;0.80;;
54561;SDS011;40456;53.358;-1.486;2022-11-25T10:52:22;3.53;;;0.80;;
54561;SDS011;40456;53.358;-1.486;2022-11-25T10:54:56;2.60;;;0.88;;
54561;SDS011;40456;53.358;-1.486;2022-11-25T10:57:32;1.92;;;0.60;;
54561;SDS011;40456;53.358;-1.486;2022-11-25T10:59:58;4.93;;;1.33;;
54561;SDS011;40456;53.358;-1.486;2022-11-25T11:02:26;3.97;;;1.15;;
54561;SDS011;40456;53.358;-1.486;2022-11-25T11:04:56;2.35;;;0.70;;
54561;SDS011;40456;53.358;-1.486;2022-11-25T11:07:32;2.30;;;0.43;;
54561;SDS011;40456;53.358;-1.486;2022-11-25T11:10:20;2.97;;;0.80;;
54561;SDS011;40456;53.358;-1.486;2022-11-25T11:12:58;1.42;;;0.45;;
54561;SDS011;40456;53.358;-1.486;2022-11-25T11:15:28;3.60;;;0.63;;
54561;SDS011;40456;53.358;-1.486;2022-11-25T11:17:54;5.55;;;1.13;;
54561;SDS011;40456;53.358;-1.486;2022-11-25T11:20:27;2.92;;;0.60;;
54561;SDS011;40456;53.358;-1.486;2022-11-25T11:22:56;2.97;;;0.80;;
54561;SDS011;40456;53.358;-1.486;2022-11-25T11:25:26;2.63;;;0.77;;
54561;SDS011;40456;53.358;-1.486;2022-11-25T11:27:53;2.53;;;0.80;;
54561;SDS011;40456;53.358;-1.486;2022-11-25T11:30:20;5.63;;;0.90;;
54561;SDS011;40456;53.358;-1.486;2022-11-25T11:32:57;2.88;;;0.75;;
54561;SDS011;40456;53.358;-1.486;2022-11-25T11:40:50;2.20;;;0.68;;
54561;SDS011;40456;53.358;-1.486;2022-11-25T11:43:37;2.58;;;0.80;;
54561;SDS011;40456;53.358;-1.486;2022-11-25T12:06:57;3.72;;;1.10;;
54561;SDS011;40456;53.358;-1.486;2022-11-25T12:09:26;3.20;;;0.88;;
54561;SDS011;40456;53.358;-1.486;2022-11-25T12:11:54;2.72;;;1.10;;
54561;SDS011;40456;53.358;-1.486;2022-11-25T12:17:02;2.55;;;0.55;;
54561;SDS011;40456;53.358;-1.486;2022-11-25T12:19:32;4.50;;;0.82;;
54561;SDS011;40456;53.358;-1.486;2022-11-25T12:27:02;3.90;;;1.05;;
54561;SDS011;40456;53.358;-1.486;2022-11-25T12:30:00;2.65;;;0.90;;
54561;SDS011;40456;53.358;-1.486;2022-11-25T12:45:44;4.28;;;0.80;;
54561;SDS011;40456;53.358;-1.486;2022-11-25T12:48:11;2.55;;;0.88;;
54561;SDS011;40456;53.358;-1.486;2022-11-25T12:50:56;3.03;;;0.68;;
54561;SDS011;40456;53.358;-1.486;2022-11-25T12:56:03;6.38;;;1.25;;
54561;SDS011;40456;53.358;-1.486;2022-11-25T12:58:41;3.30;;;0.60;;
54561;SDS011;40456;53.358;-1.486;2022-11-25T13:06:27;2.72;;;0.60;;
54561;SDS011;40456;53.358;-1.486;2022-11-25T13:09:10;1.75;;;0.68;;
54561;SDS011;40456;53.358;-1.486;2022-11-25T13:17:45;4.45;;;0.63;;
54561;SDS011;40456;53.358;-1.486;2022-11-25T13:25:41;5.60;;;1.00;;
54561;SDS011;40456;53.358;-1.486;2022-11-25T13:30:52;3.83;;;0.82;;
54561;SDS011;40456;53.358;-1.486;2022-11-25T13:35:51;3.42;;;0.82;;
54561;SDS011;40456;53.358;-1.486;2022-11-25T13:38:36;7.70;;;1.15;;
54561;SDS011;40456;53.358;-1.486;2022-11-25T13:43:36;1.20;;;0.47;;
54561;SDS011;40456;53.358;-1.486;2022-11-25T13:49:28;3.75;;;0.82;;
54561;SDS011;40456;53.358;-1.486;2022-11-25T13:51:53;2.42;;;0.80;;
54561;SDS011;40456;53.358;-1.486;2022-11-25T13:54:23;3.13;;;1.02;;
54561;SDS011;40456;53.358;-1.486;2022-11-25T13:59:36;2.65;;;1.05;;
54561;SDS011;40456;53.358;-1.486;2022-11-25T14:05:03;3.80;;;1.00;;
54561;SDS011;40456;53.358;-1.486;2022-11-25T14:21:15;3.33;;;0.70;;
54561;SDS011;40456;53.358;-1.486;2022-11-25T14:23:57;4.20;;;0.75;;
54561;SDS011;40456;53.358;-1.486;2022-11-25T14:26:30;3.35;;;0.65;;
54561;SDS011;40456;53.358;-1.486;2022-11-25T14:29:00;3.67;;;0.80;;
54561;SDS011;40456;53.358;-1.486;2022-11-25T14:31:41;2.80;;;0.80;;
54561;SDS011;40456;53.358;-1.486;2022-11-25T14:34:14;2.10;;;0.97;;
54561;SDS011;40456;53.358;-1.486;2022-11-25T14:36:51;3.55;;;1.05;;
54561;SDS011;40456;53.358;-1.486;2022-11-25T14:39:29;1.25;;;0.70;;
54561;SDS011;40456;53.358;-1.486;2022-11-25T14:42:07;5.72;;;0.68;;
54561;SDS011;40456;53.358;-1.486;2022-11-25T14:44:47;3.50;;;0.68;;
54561;SDS011;40456;53.358;-1.486;2022-11-25T14:47:13;3.30;;;1.10;;
54561;SDS011;40456;53.358;-1.486;2022-11-25T14:49:43;1.95;;;0.70;;
54561;SDS011;40456;53.358;-1.486;2022-11-25T14:52:14;3.65;;;0.90;;
54561;SDS011;40456;53.358;-1.486;2022-11-25T14:54:47;2.42;;;0.90;;
54561;SDS011;40456;53.358;-1.486;2022-11-25T14:57:17;3.08;;;0.70;;
54561;SDS011;40456;53.358;-1.486;2022-11-25T14:59:44;3.53;;;0.90;;
54561;SDS011;40456;53.358;-1.486;2022-11-25T15:02:23;3.28;;;0.90;;
54561;SDS011;40456;53.358;-1.486;2022-11-25T15:12:54;2.15;;;0.65;;
54561;SDS011;40456;53.358;-1.486;2022-11-25T15:15:19;3.33;;;0.70;;
54561;SDS011;40456;53.358;-1.486;2022-11-25T15:17:44;3.28;;;1.10;;
54561;SDS011;40456;53.358;-1.486;2022-11-25T15:20:11;2.78;;;0.85;;
54561;SDS011;40456;53.358;-1.486;2022-11-25T15:22:44;2.72;;;1.08;;
54561;SDS011;40456;53.358;-1.486;2022-11-25T15:25:16;2.90;;;0.95;;
54561;SDS011;40456;53.358;-1.486;2022-11-25T15:27:49;2.50;;;0.90;;
54561;SDS011;40456;53.358;-1.486;2022-11-25T15:30:23;2.05;;;0.75;;
54561;SDS011;40456;53.358;-1.486;2022-11-25T15:32:50;4.47;;;1.30;;
54561;SDS011;40456;53.358;-1.486;2022-11-25T15:35:18;2.05;;;0.80;;
54561;SDS011;40456;53.358;-1.486;2022-11-25T15:37:46;3.58;;;1.20;;
54561;SDS011;40456;53.358;-1.486;2022-11-25T15:43:01;2.15;;;0.75;;
54561;SDS011;40456;53.358;-1.486;2022-11-25T15:45:31;3.83;;;1.00;;
54561;SDS011;40456;53.358;-1.486;2022-11-25T15:48:01;4.32;;;1.33;;
54561;SDS011;40456;53.358;-1.486;2022-11-25T15:50:27;5.15;;;0.85;;
54561;SDS011;40456;53.358;-1.486;2022-11-25T15:52:54;5.63;;;0.93;;
54561;SDS011;40456;53.358;-1.486;2022-11-25T15:57:52;3.45;;;1.02;;
54561;SDS011;40456;53.358;-1.486;2022-11-25T16:00:19;2.80;;;0.93;;
54561;SDS011;40456;53.358;-1.486;2022-11-25T16:02:48;4.03;;;0.90;;
54561;SDS011;40456;53.358;-1.486;2022-11-25T16:05:17;7.22;;;0.98;;
54561;SDS011;40456;53.358;-1.486;2022-11-25T16:10:24;7.03;;;1.60;;
54561;SDS011;40456;53.358;-1.486;2022-11-25T16:15:44;5.85;;;1.65;;
54561;SDS011;40456;53.358;-1.486;2022-11-25T16:18:15;3.63;;;1.52;;
54561;SDS011;40456;53.358;-1.486;2022-11-25T16:20:49;5.63;;;1.58;;
54561;SDS011;40456;53.358;-1.486;2022-11-25T16:23:19;3.13;;;1.33;;
54561;SDS011;40456;53.358;-1.486;2022-11-25T16:25:49;4.53;;;1.60;;
54561;SDS011;40456;53.358;-1.486;2022-11-25T16:28:19;3.63;;;1.88;;
54561;SDS011;40456;53.358;-1.486;2022-11-25T16:30:45;3.38;;;1.33;;
54561;SDS011;40456;53.358;-1.486;2022-11-25T16:33:11;3.85;;;1.80;;
54561;SDS011;40456;53.358;-1.486;2022-11-25T16:35:36;5.53;;;1.63;;
54561;SDS011;40456;53.358;-1.486;2022-11-25T16:38:02;3.53;;;1.23;;
54561;SDS011;40456;53.358;-1.486;2022-11-25T16:40:27;3.20;;;1.63;;
54561;SDS011;40456;53.358;-1.486;2022-11-25T16:42:53;3.58;;;1.48;;
54561;SDS011;40456;53.358;-1.486;2022-11-25T16:45:20;2.80;;;1.30;;
54561;SDS011;40456;53.358;-1.486;2022-11-25T16:47:47;3.65;;;1.55;;
54561;SDS011;40456;53.358;-1.486;2022-11-25T16:50:13;3.63;;;1.42;;
54561;SDS011;40456;53.358;-1.486;2022-11-25T16:52:40;2.42;;;1.00;;
54561;SDS011;40456;53.358;-1.486;2022-11-25T16:55:06;8.10;;;1.30;;
54561;SDS011;40456;53.358;-1.486;2022-11-25T16:57:31;3.42;;;1.10;;
54561;SDS011;40456;53.358;-1.486;2022-11-25T16:59:57;3.92;;;1.73;;
54561;SDS011;40456;53.358;-1.486;2022-11-25T17:02:26;2.97;;;1.27;;
54561;SDS011;40456;53.358;-1.486;2022-11-25T17:04:51;4.43;;;1.55;;
54561;SDS011;40456;53.358;-1.486;2022-11-25T17:07:17;4.53;;;1.17;;
54561;SDS011;40456;53.358;-1.486;2022-11-25T17:09:44;6.47;;;1.65;;
54561;SDS011;40456;53.358;-1.486;2022-11-25T17:12:17;3.63;;;1.17;;
54561;SDS011;40456;53.358;-1.486;2022-11-25T17:14:46;6.20;;;1.67;;
54561;SDS011;40456;53.358;-1.486;2022-11-25T17:17:15;3.15;;;1.40;;
54561;SDS011;40456;53.358;-1.486;2022-11-25T17:19:49;2.65;;;1.42;;